Airfield :
LOGIN :

Register | Disclaimer

   EN    FR    IT 

 










Legend :    VFR   Marginal VFR   IFR   Intensive IFR   Very Intensive IFR
Visi :
Ceiling :
>= 8 km
>= 3000ft
5 to 8 km
1000 to 3000 ft
1500m to 5 km
500 to 1000 ft
800 to 1500m
200 to 500 ft
< 800m
< 200 ft
Symbols :   Thunderstorms  Fog  Heavy snow  Heavy precipitations  Wind > 20 kt
SIGMETs :     Misc.  Thunderstorms  Icing  Turbulence  Mountain Waves  Volcanic Ashes






- Airport Elevation : 16 ft
- IATA code : SDR


LEXJ - Santander Cantabria

CURRENT METAR :
  • 251900Z 22004KT 190V270 9999 -SHRA FEW020 SCT030TCU BKN060 14/12 Q1018

EXPIRED METARs :
  • 251830Z 24006KT 200V270 9999 -SHRA FEW020 SCT030TCU BKN060 14/12 Q1018 RESHRA
  • 251815Z 23005KT 190V260 9999 4500NW SHRA FEW020 SCT025TCU BKN060 15/13 Q1018
  • 251800Z 23004KT 200V260 9999 FEW020 FEW025TCU SCT065 15/13 Q1018
  • 251730Z 25005KT 210V280 9999 FEW020 FEW025TCU SCT065 15/13 Q1018
  • 251700Z 20005KT 170V260 9999 FEW015 FEW025TCU SCT065 15/13 Q1018

TAF AMD TAF LEXJ
Valid from the 25 at 16:00 until the 26 at 15:00 UTC


251614Z 2516/2615 30009KT 9999 FEW020 BKN035 TX18/2614Z TN12/2605Z
TEMPO 2516/2615 FEW025TCU
TEMPO 2516/2615 3000 RA SHRA BKN010 SCT025TCU
PROB40
TEMPO 2516/2606 1500 +SHRA BKN025TCU
PROB30
TEMPO 2516/2606 TS SCT025CB



MET'MAP, your aeronautical weather chart ! - Copyright ORBIFLY December 2007 - Disclaimer

ORBIFLY MET'MAP TEAM :

Programming & Development : Alexandra Zaïnal
Original concept : Baudouin d'Aumeries
Technical & hardware support : Manuel Goepfert
Assistance : Marc-Olivier Méhu




SOURCES & CREDITS :

   NOAA